Silverdale, PA (18962)

7:17 AM EDT on September 30, 2014 (GMT -0400)
Hilltown Township Secondary | Change Station
CLOSE
Current Station
Personal Weather Station
Location: Perkasie, PA
Elevation: 656 ft
Nearby Weather Stations
Active Advisory: Special Statement

Elev 656 ft 40.33 °N, 75.26 °W | Updated 0 second ago

Fog
Fog
59.9 °F
Feels Like 59.9 °F
N
0.0
Wind Variable Wind from South
Gusts 0.0 mph

Today
High -- | Low -- °F
--% Chance of Precip.
Yesterday
High -- | Low -- °F
Precip. -- in
6:56 AM 6:44 PM
Waxing Crescent, 35% visible
Pressure 29.93 in
Visibility 0.8 miles
Clouds
Dew Point 59 °F
Humidity 96%
Rainfall 0.00 in
Snow Depth Not available.
UV 0.0 out of 12
Pollen 1.90 out of 12
Air Quality Not available.
Flu Activity Not available.
METAR KDYL 301054Z AUTO 00000KT 3/4SM BR VV001 14/14 A2994 RMK AO2 SLP135 T01440144

More Conditions Fewer Conditions

Pressure 29.93 in
Visibility 0.8 miles
Clouds
Dew Point 59 °F
Humidity 96%
Rainfall 0.00 in
Snow Depth Not available.
UV 0.0 out of 12
Pollen 1.90 out of 12
Air Quality Not available.
Flu Activity Not available.
METAR KDYL 301054Z AUTO 00000KT 3/4SM BR VV001 14/14 A2994 RMK AO2 SLP135 T01440144

More Conditions Fewer Conditions

10-Day Weather Forecast

Almanac

Astronomy

Sep. 30, 2014 Rise Set
Actual Time 6:56 AM EDT 6:44 PM EDT
Civil Twilight 6:29 AM EDT 7:12 PM EDT
Nautical Twilight 5:57 AM EDT 7:43 PM EDT
Astronomical Twilight 5:25 AM EDT 8:15 PM EDT
Moon 1:03 PM EDT 11:12 PM EDT
Length of Visible Light 12h 42m
Length of Day
11h 48m
Tomorrow will be 2m 39s shorter.
Waxing Crescent, 35% of the Moon is Illuminated
Today
Waxing Crescent
Oct 1
First Quarter
Oct 8
Full
Oct 15
Last Quarter
Oct 23
New

Today's Extremes

State Highs State Lows

Community

WunderPhotos

Upload Photos

1,757,615 photos uploaded!

WunderBlogs® & News

Nearby

Snow Depth

Station Depth Elevation
No new snow has been reported.

Earthquake Activity

City Distance Mag. Time & Date
No recent earthquake activity has been reported nearby.
Minimum magnitude displayed is 2.5.

Coastal Water Temperatures

Place Temperature
No Stations Reporting

Nearby Weather Stations